sensor_id;sensor_type;location;lat;lon;timestamp;temperature;humidity
22813;DHT22;11573;51.334;3.244;2022-09-09T00:03:59;16.20;99.90
22813;DHT22;11573;51.334;3.244;2022-09-09T00:06:42;16.20;99.90
22813;DHT22;11573;51.334;3.244;2022-09-09T00:09:14;16.10;99.90
22813;DHT22;11573;51.334;3.244;2022-09-09T00:11:54;16.10;99.90
22813;DHT22;11573;51.334;3.244;2022-09-09T00:14:31;16.00;99.90
22813;DHT22;11573;51.334;3.244;2022-09-09T00:17:04;16.00;99.90
22813;DHT22;11573;51.334;3.244;2022-09-09T00:19:55;16.00;99.90
22813;DHT22;11573;51.334;3.244;2022-09-09T00:22:23;16.00;99.90
22813;DHT22;11573;51.334;3.244;2022-09-09T00:27:45;16.00;99.90
22813;DHT22;11573;51.334;3.244;2022-09-09T00:30:25;16.00;99.90
22813;DHT22;11573;51.334;3.244;2022-09-09T00:33:11;15.90;99.90
22813;DHT22;11573;51.334;3.244;2022-09-09T00:35:46;15.90;99.90
22813;DHT22;11573;51.334;3.244;2022-09-09T00:40:52;15.90;99.90
22813;DHT22;11573;51.334;3.244;2022-09-09T00:43:35;15.80;99.90
22813;DHT22;11573;51.334;3.244;2022-09-09T00:51:37;15.80;99.90
22813;DHT22;11573;51.334;3.244;2022-09-09T00:59:54;15.80;99.90
22813;DHT22;11573;51.334;3.244;2022-09-09T01:08:01;15.80;99.90
22813;DHT22;11573;51.334;3.244;2022-09-09T01:10:39;15.80;99.90
22813;DHT22;11573;51.334;3.244;2022-09-09T01:13:34;15.80;99.90
22813;DHT22;11573;51.334;3.244;2022-09-09T01:16:10;15.80;99.90
22813;DHT22;11573;51.334;3.244;2022-09-09T01:18:44;15.80;99.90
22813;DHT22;11573;51.334;3.244;2022-09-09T01:21:49;15.80;99.90
22813;DHT22;11573;51.334;3.244;2022-09-09T01:24:40;15.80;99.90
22813;DHT22;11573;51.334;3.244;2022-09-09T01:27:19;15.80;99.90
22813;DHT22;11573;51.334;3.244;2022-09-09T01:29:48;15.80;99.90
22813;DHT22;11573;51.334;3.244;2022-09-09T01:32:46;15.80;99.90
22813;DHT22;11573;51.334;3.244;2022-09-09T01:35:50;15.70;99.90
22813;DHT22;11573;51.334;3.244;2022-09-09T01:38:19;15.80;99.90
22813;DHT22;11573;51.334;3.244;2022-09-09T01:40:49;15.80;99.90
22813;DHT22;11573;51.334;3.244;2022-09-09T01:43:22;15.80;99.90
22813;DHT22;11573;51.334;3.244;2022-09-09T01:45:53;15.80;99.90
22813;DHT22;11573;51.334;3.244;2022-09-09T01:48:22;15.70;99.90
22813;DHT22;11573;51.334;3.244;2022-09-09T01:50:59;15.60;99.90
22813;DHT22;11573;51.334;3.244;2022-09-09T01:53:27;15.70;99.90
22813;DHT22;11573;51.334;3.244;2022-09-09T02:07:40;15.60;99.90
22813;DHT22;11573;51.334;3.244;2022-09-09T02:10:32;15.60;99.90
22813;DHT22;11573;51.334;3.244;2022-09-09T02:13:18;15.70;99.90
22813;DHT22;11573;51.334;3.244;2022-09-09T02:18:28;15.60;99.90
22813;DHT22;11573;51.334;3.244;2022-09-09T02:20:57;15.70;99.90
22813;DHT22;11573;51.334;3.244;2022-09-09T02:23:25;15.70;99.90
22813;DHT22;11573;51.334;3.244;2022-09-09T02:25:56;15.70;99.90
22813;DHT22;11573;51.334;3.244;2022-09-09T02:28:27;15.70;99.90
22813;DHT22;11573;51.334;3.244;2022-09-09T02:30:55;15.80;99.90
22813;DHT22;11573;51.334;3.244;2022-09-09T02:33:35;15.90;99.90
22813;DHT22;11573;51.334;3.244;2022-09-09T02:36:05;15.90;99.90
22813;DHT22;11573;51.334;3.244;2022-09-09T02:38:41;15.90;99.90
22813;DHT22;11573;51.334;3.244;2022-09-09T02:41:13;16.00;99.90
22813;DHT22;11573;51.334;3.244;2022-09-09T02:43:40;16.00;99.90
22813;DHT22;11573;51.334;3.244;2022-09-09T02:49:01;16.00;99.90
22813;DHT22;11573;51.334;3.244;2022-09-09T02:51:42;15.90;99.90
22813;DHT22;11573;51.334;3.244;2022-09-09T02:56:51;16.00;99.90
22813;DHT22;11573;51.334;3.244;2022-09-09T02:59:22;16.00;99.90
22813;DHT22;11573;51.334;3.244;2022-09-09T03:01:52;16.00;99.90
22813;DHT22;11573;51.334;3.244;2022-09-09T03:04:20;16.10;99.90
22813;DHT22;11573;51.334;3.244;2022-09-09T03:06:48;16.00;99.90
22813;DHT22;11573;51.334;3.244;2022-09-09T03:09:18;16.00;99.90
22813;DHT22;11573;51.334;3.244;2022-09-09T03:11:45;16.00;99.90
22813;DHT22;11573;51.334;3.244;2022-09-09T03:14:15;16.00;99.90
22813;DHT22;11573;51.334;3.244;2022-09-09T03:16:44;16.10;99.90
22813;DHT22;11573;51.334;3.244;2022-09-09T03:19:11;16.10;99.90
22813;DHT22;11573;51.334;3.244;2022-09-09T03:21:38;16.10;99.90
22813;DHT22;11573;51.334;3.244;2022-09-09T03:24:05;16.10;99.90
22813;DHT22;11573;51.334;3.244;2022-09-09T03:26:33;16.10;99.90
22813;DHT22;11573;51.334;3.244;2022-09-09T03:29:00;16.10;99.90
22813;DHT22;11573;51.334;3.244;2022-09-09T03:31:28;16.10;99.90
22813;DHT22;11573;51.334;3.244;2022-09-09T03:33:57;16.10;99.90
22813;DHT22;11573;51.334;3.244;2022-09-09T03:36:27;16.10;99.90
22813;DHT22;11573;51.334;3.244;2022-09-09T03:38:55;16.10;99.90
22813;DHT22;11573;51.334;3.244;2022-09-09T03:41:25;16.10;99.90
22813;DHT22;11573;51.334;3.244;2022-09-09T03:43:53;16.00;99.90
22813;DHT22;11573;51.334;3.244;2022-09-09T03:46:24;16.00;99.90
22813;DHT22;11573;51.334;3.244;2022-09-09T03:48:55;16.00;99.90
22813;DHT22;11573;51.334;3.244;2022-09-09T03:51:22;16.00;99.90
22813;DHT22;11573;51.334;3.244;2022-09-09T03:53:49;15.90;99.90
22813;DHT22;11573;51.334;3.244;2022-09-09T03:56:17;15.90;99.90
22813;DHT22;11573;51.334;3.244;2022-09-09T03:58:44;15.90;99.90
22813;DHT22;11573;51.334;3.244;2022-09-09T04:01:13;15.90;99.90
22813;DHT22;11573;51.334;3.244;2022-09-09T04:03:42;15.80;99.90
22813;DHT22;11573;51.334;3.244;2022-09-09T04:06:10;15.80;99.90
22813;DHT22;11573;51.334;3.244;2022-09-09T04:08:41;15.80;99.90
22813;DHT22;11573;51.334;3.244;2022-09-09T04:11:09;15.80;99.90
22813;DHT22;11573;51.334;3.244;2022-09-09T04:13:38;15.80;99.90
22813;DHT22;11573;51.334;3.244;2022-09-09T04:16:10;15.80;99.90
22813;DHT22;11573;51.334;3.244;2022-09-09T04:18:37;15.80;99.90
22813;DHT22;11573;51.334;3.244;2022-09-09T04:21:07;15.70;99.90
22813;DHT22;11573;51.334;3.244;2022-09-09T04:23:35;15.70;99.90
22813;DHT22;11573;51.334;3.244;2022-09-09T04:26:04;15.70;99.90
22813;DHT22;11573;51.334;3.244;2022-09-09T04:28:34;15.60;99.90
22813;DHT22;11573;51.334;3.244;2022-09-09T04:31:10;15.60;99.90
22813;DHT22;11573;51.334;3.244;2022-09-09T04:33:40;15.60;99.90
22813;DHT22;11573;51.334;3.244;2022-09-09T04:36:08;15.60;99.90
22813;DHT22;11573;51.334;3.244;2022-09-09T04:38:36;15.60;99.90
22813;DHT22;11573;51.334;3.244;2022-09-09T04:41:04;15.60;99.90
22813;DHT22;11573;51.334;3.244;2022-09-09T04:43:33;15.60;99.90
22813;DHT22;11573;51.334;3.244;2022-09-09T04:46:03;15.60;99.90
22813;DHT22;11573;51.334;3.244;2022-09-09T04:48:30;15.60;99.90
22813;DHT22;11573;51.334;3.244;2022-09-09T04:51:01;15.60;99.90
22813;DHT22;11573;51.334;3.244;2022-09-09T04:53:29;15.60;99.90
22813;DHT22;11573;51.334;3.244;2022-09-09T04:56:10;15.60;99.90
22813;DHT22;11573;51.334;3.244;2022-09-09T04:58:42;15.60;99.90
22813;DHT22;11573;51.334;3.244;2022-09-09T05:01:12;15.60;99.90
22813;DHT22;11573;51.334;3.244;2022-09-09T05:03:42;15.60;99.90
22813;DHT22;11573;51.334;3.244;2022-09-09T05:06:16;15.60;99.90
22813;DHT22;11573;51.334;3.244;2022-09-09T05:08:47;15.60;99.90
22813;DHT22;11573;51.334;3.244;2022-09-09T05:11:27;15.60;99.90
22813;DHT22;11573;51.334;3.244;2022-09-09T05:13:59;15.60;99.90
22813;DHT22;11573;51.334;3.244;2022-09-09T05:16:28;15.60;99.90
22813;DHT22;11573;51.334;3.244;2022-09-09T05:18:57;15.60;99.90
22813;DHT22;11573;51.334;3.244;2022-09-09T05:21:25;15.60;99.90
22813;DHT22;11573;51.334;3.244;2022-09-09T05:23:54;15.60;99.90
22813;DHT22;11573;51.334;3.244;2022-09-09T05:26:22;15.60;99.90
22813;DHT22;11573;51.334;3.244;2022-09-09T05:28:51;15.70;99.90
22813;DHT22;11573;51.334;3.244;2022-09-09T05:31:19;15.80;99.90
22813;DHT22;11573;51.334;3.244;2022-09-09T05:33:49;15.80;99.90
22813;DHT22;11573;51.334;3.244;2022-09-09T05:36:18;15.80;99.90
22813;DHT22;11573;51.334;3.244;2022-09-09T05:38:48;15.80;99.90
22813;DHT22;11573;51.334;3.244;2022-09-09T05:41:17;15.90;99.90
22813;DHT22;11573;51.334;3.244;2022-09-09T05:43:46;15.90;99.90
22813;DHT22;11573;51.334;3.244;2022-09-09T05:46:29;15.90;99.90
22813;DHT22;11573;51.334;3.244;2022-09-09T05:48:57;16.00;99.90
22813;DHT22;11573;51.334;3.244;2022-09-09T05:51:29;16.00;99.90
22813;DHT22;11573;51.334;3.244;2022-09-09T05:54:00;16.10;99.90
22813;DHT22;11573;51.334;3.244;2022-09-09T05:56:31;16.00;99.90
22813;DHT22;11573;51.334;3.244;2022-09-09T05:59:00;16.00;99.90
22813;DHT22;11573;51.334;3.244;2022-09-09T06:01:32;16.00;99.90
22813;DHT22;11573;51.334;3.244;2022-09-09T06:04:01;16.00;99.90
22813;DHT22;11573;51.334;3.244;2022-09-09T06:06:34;16.00;99.90
22813;DHT22;11573;51.334;3.244;2022-09-09T06:09:09;16.00;99.90
22813;DHT22;11573;51.334;3.244;2022-09-09T06:11:41;16.00;99.90
22813;DHT22;11573;51.334;3.244;2022-09-09T06:14:24;16.10;99.90
22813;DHT22;11573;51.334;3.244;2022-09-09T06:16:52;16.10;99.90
22813;DHT22;11573;51.334;3.244;2022-09-09T06:19:22;16.10;99.90
22813;DHT22;11573;51.334;3.244;2022-09-09T06:21:51;16.10;99.90
22813;DHT22;11573;51.334;3.244;2022-09-09T06:24:18;16.30;99.90
22813;DHT22;11573;51.334;3.244;2022-09-09T06:26:46;16.40;99.90
22813;DHT22;11573;51.334;3.244;2022-09-09T06:29:19;16.50;99.90
22813;DHT22;11573;51.334;3.244;2022-09-09T06:31:46;16.70;99.90
22813;DHT22;11573;51.334;3.244;2022-09-09T06:34:19;17.10;99.90
22813;DHT22;11573;51.334;3.244;2022-09-09T06:36:50;17.30;99.90
22813;DHT22;11573;51.334;3.244;2022-09-09T06:39:18;17.40;99.90
22813;DHT22;11573;51.334;3.244;2022-09-09T06:41:45;17.40;99.90
22813;DHT22;11573;51.334;3.244;2022-09-09T06:44:33;17.20;99.90
22813;DHT22;11573;51.334;3.244;2022-09-09T06:47:02;17.10;99.90
22813;DHT22;11573;51.334;3.244;2022-09-09T06:49:31;17.10;99.90
22813;DHT22;11573;51.334;3.244;2022-09-09T06:51:59;16.90;99.90
22813;DHT22;11573;51.334;3.244;2022-09-09T06:54:28;16.80;99.90
22813;DHT22;11573;51.334;3.244;2022-09-09T06:56:55;16.70;99.90
22813;DHT22;11573;51.334;3.244;2022-09-09T06:59:24;16.60;99.90
22813;DHT22;11573;51.334;3.244;2022-09-09T07:01:53;16.50;99.90
22813;DHT22;11573;51.334;3.244;2022-09-09T07:04:23;16.50;99.90
22813;DHT22;11573;51.334;3.244;2022-09-09T07:06:50;16.40;99.90
22813;DHT22;11573;51.334;3.244;2022-09-09T07:09:24;16.40;99.90
22813;DHT22;11573;51.334;3.244;2022-09-09T07:11:53;16.40;99.90
22813;DHT22;11573;51.334;3.244;2022-09-09T07:14:30;16.30;99.90
22813;DHT22;11573;51.334;3.244;2022-09-09T07:17:00;16.30;99.90
22813;DHT22;11573;51.334;3.244;2022-09-09T07:19:32;16.30;99.90
22813;DHT22;11573;51.334;3.244;2022-09-09T07:22:01;16.30;99.90
22813;DHT22;11573;51.334;3.244;2022-09-09T07:24:31;16.40;99.90
22813;DHT22;11573;51.334;3.244;2022-09-09T07:26:58;16.40;99.90
22813;DHT22;11573;51.334;3.244;2022-09-09T07:29:26;16.40;99.90
22813;DHT22;11573;51.334;3.244;2022-09-09T07:31:53;16.40;99.90
22813;DHT22;11573;51.334;3.244;2022-09-09T07:34:26;16.40;99.90
22813;DHT22;11573;51.334;3.244;2022-09-09T07:36:53;16.50;99.90
22813;DHT22;11573;51.334;3.244;2022-09-09T07:39:20;16.60;99.90
22813;DHT22;11573;51.334;3.244;2022-09-09T07:41:51;16.60;99.90
22813;DHT22;11573;51.334;3.244;2022-09-09T07:44:23;16.70;99.90
22813;DHT22;11573;51.334;3.244;2022-09-09T07:47:08;16.60;99.90
22813;DHT22;11573;51.334;3.244;2022-09-09T07:49:41;16.50;99.90
22813;DHT22;11573;51.334;3.244;2022-09-09T07:52:08;16.60;99.90
22813;DHT22;11573;51.334;3.244;2022-09-09T07:54:40;16.60;99.90
22813;DHT22;11573;51.334;3.244;2022-09-09T07:57:10;16.70;99.90
22813;DHT22;11573;51.334;3.244;2022-09-09T07:59:37;16.70;99.90
22813;DHT22;11573;51.334;3.244;2022-09-09T08:02:04;16.70;99.90
22813;DHT22;11573;51.334;3.244;2022-09-09T08:04:33;16.60;99.90
22813;DHT22;11573;51.334;3.244;2022-09-09T08:07:02;16.60;99.90
22813;DHT22;11573;51.334;3.244;2022-09-09T08:09:34;16.70;99.90
22813;DHT22;11573;51.334;3.244;2022-09-09T08:12:10;16.90;99.90
22813;DHT22;11573;51.334;3.244;2022-09-09T08:14:39;17.10;99.90
22813;DHT22;11573;51.334;3.244;2022-09-09T08:17:07;17.10;99.90
22813;DHT22;11573;51.334;3.244;2022-09-09T08:19:34;17.20;99.90
22813;DHT22;11573;51.334;3.244;2022-09-09T08:22:06;17.20;99.90
22813;DHT22;11573;51.334;3.244;2022-09-09T08:24:37;17.30;99.90
22813;DHT22;11573;51.334;3.244;2022-09-09T08:27:04;17.60;99.90
22813;DHT22;11573;51.334;3.244;2022-09-09T08:29:32;17.60;99.90
22813;DHT22;11573;51.334;3.244;2022-09-09T08:31:59;17.60;99.90
22813;DHT22;11573;51.334;3.244;2022-09-09T08:34:27;17.50;99.90
22813;DHT22;11573;51.334;3.244;2022-09-09T08:36:57;17.60;99.90
22813;DHT22;11573;51.334;3.244;2022-09-09T08:39:32;17.30;99.90
22813;DHT22;11573;51.334;3.244;2022-09-09T08:47:36;17.70;99.90
22813;DHT22;11573;51.334;3.244;2022-09-09T08:55:47;18.20;99.90
22813;DHT22;11573;51.334;3.244;2022-09-09T08:58:27;18.40;99.90
22813;DHT22;11573;51.334;3.244;2022-09-09T09:12:30;18.40;99.90
22813;DHT22;11573;51.334;3.244;2022-09-09T09:15:00;18.40;99.90
22813;DHT22;11573;51.334;3.244;2022-09-09T09:17:28;18.50;99.90
22813;DHT22;11573;51.334;3.244;2022-09-09T09:20:00;18.30;99.90
22813;DHT22;11573;51.334;3.244;2022-09-09T09:22:39;18.20;99.90
22813;DHT22;11573;51.334;3.244;2022-09-09T09:25:16;18.20;99.90
22813;DHT22;11573;51.334;3.244;2022-09-09T09:28:02;18.10;99.90
22813;DHT22;11573;51.334;3.244;2022-09-09T09:30:41;18.30;99.90
22813;DHT22;11573;51.334;3.244;2022-09-09T09:33:20;18.30;99.90
22813;DHT22;11573;51.334;3.244;2022-09-09T09:35:49;18.60;99.90
22813;DHT22;11573;51.334;3.244;2022-09-09T09:38:24;18.80;99.90
22813;DHT22;11573;51.334;3.244;2022-09-09T09:41:12;18.60;99.90
22813;DHT22;11573;51.334;3.244;2022-09-09T09:43:41;18.50;99.90
22813;DHT22;11573;51.334;3.244;2022-09-09T09:46:21;18.30;99.90
22813;DHT22;11573;51.334;3.244;2022-09-09T09:49:02;18.00;99.90
22813;DHT22;11573;51.334;3.244;2022-09-09T09:51:32;17.90;99.90
22813;DHT22;11573;51.334;3.244;2022-09-09T09:54:27;17.80;99.90
22813;DHT22;11573;51.334;3.244;2022-09-09T09:57:14;17.80;99.90
22813;DHT22;11573;51.334;3.244;2022-09-09T09:59:43;17.70;99.90
22813;DHT22;11573;51.334;3.244;2022-09-09T10:02:24;17.70;99.90
22813;DHT22;11573;51.334;3.244;2022-09-09T10:05:17;17.80;99.90
22813;DHT22;11573;51.334;3.244;2022-09-09T10:08:11;18.00;99.90
22813;DHT22;11573;51.334;3.244;2022-09-09T10:19:33;19.10;99.90
22813;DHT22;11573;51.334;3.244;2022-09-09T10:22:26;18.70;99.90
22813;DHT22;11573;51.334;3.244;2022-09-09T10:30:51;17.90;99.90
22813;DHT22;11573;51.334;3.244;2022-09-09T10:33:37;17.70;99.90
22813;DHT22;11573;51.334;3.244;2022-09-09T10:36:16;17.50;99.90
22813;DHT22;11573;51.334;3.244;2022-09-09T10:38:59;17.50;99.90
22813;DHT22;11573;51.334;3.244;2022-09-09T10:41:53;17.60;99.90
22813;DHT22;11573;51.334;3.244;2022-09-09T10:44:52;17.70;99.90
22813;DHT22;11573;51.334;3.244;2022-09-09T10:50:23;17.60;99.90
22813;DHT22;11573;51.334;3.244;2022-09-09T10:53:07;17.50;99.90
22813;DHT22;11573;51.334;3.244;2022-09-09T10:55:41;17.30;99.90
22813;DHT22;11573;51.334;3.244;2022-09-09T10:58:18;17.20;99.90
22813;DHT22;11573;51.334;3.244;2022-09-09T11:00:51;17.10;99.90
22813;DHT22;11573;51.334;3.244;2022-09-09T11:03:29;17.10;99.90
22813;DHT22;11573;51.334;3.244;2022-09-09T11:06:09;17.10;99.90
22813;DHT22;11573;51.334;3.244;2022-09-09T11:08:39;17.30;99.90
22813;DHT22;11573;51.334;3.244;2022-09-09T11:16:40;17.70;99.90
22813;DHT22;11573;51.334;3.244;2022-09-09T11:19:34;17.80;99.90
22813;DHT22;11573;51.334;3.244;2022-09-09T11:24:59;17.90;99.90
22813;DHT22;11573;51.334;3.244;2022-09-09T11:33:34;18.20;99.90
22813;DHT22;11573;51.334;3.244;2022-09-09T11:41:48;18.50;99.90
22813;DHT22;11573;51.334;3.244;2022-09-09T11:44:25;18.50;99.90
22813;DHT22;11573;51.334;3.244;2022-09-09T11:47:29;18.30;99.90
22813;DHT22;11573;51.334;3.244;2022-09-09T11:53:02;17.80;99.90
22813;DHT22;11573;51.334;3.244;2022-09-09T11:55:43;17.50;99.90
22813;DHT22;11573;51.334;3.244;2022-09-09T11:58:55;17.30;99.90
22813;DHT22;11573;51.334;3.244;2022-09-09T12:05:21;17.10;99.90
22813;DHT22;11573;51.334;3.244;2022-09-09T12:10:53;16.80;99.90
22813;DHT22;11573;51.334;3.244;2022-09-09T12:16:36;17.10;99.90
22813;DHT22;11573;51.334;3.244;2022-09-09T12:21:44;17.70;99.90
22813;DHT22;11573;51.334;3.244;2022-09-09T12:27:43;18.20;99.90
22813;DHT22;11573;51.334;3.244;2022-09-09T12:30:15;18.50;99.90
22813;DHT22;11573;51.334;3.244;2022-09-09T12:32:42;18.70;99.90
22813;DHT22;11573;51.334;3.244;2022-09-09T12:35:21;18.80;99.90
22813;DHT22;11573;51.334;3.244;2022-09-09T12:37:53;19.10;99.90
22813;DHT22;11573;51.334;3.244;2022-09-09T12:42:52;20.10;99.90
22813;DHT22;11573;51.334;3.244;2022-09-09T12:52:55;20.20;99.90
22813;DHT22;11573;51.334;3.244;2022-09-09T12:55:28;20.00;99.90
22813;DHT22;11573;51.334;3.244;2022-09-09T12:57:57;19.70;99.90
22813;DHT22;11573;51.334;3.244;2022-09-09T13:00:26;19.40;99.90
22813;DHT22;11573;51.334;3.244;2022-09-09T13:02:56;19.10;99.90
22813;DHT22;11573;51.334;3.244;2022-09-09T13:05:43;18.70;99.90
22813;DHT22;11573;51.334;3.244;2022-09-09T13:08:11;18.50;99.90
22813;DHT22;11573;51.334;3.244;2022-09-09T13:10:52;18.70;99.90
22813;DHT22;11573;51.334;3.244;2022-09-09T13:13:40;19.20;99.90
22813;DHT22;11573;51.334;3.244;2022-09-09T13:16:37;19.30;99.90
22813;DHT22;11573;51.334;3.244;2022-09-09T13:19:10;19.10;99.90
22813;DHT22;11573;51.334;3.244;2022-09-09T13:21:40;18.70;99.90
22813;DHT22;11573;51.334;3.244;2022-09-09T13:26:57;18.70;99.90
22813;DHT22;11573;51.334;3.244;2022-09-09T13:29:24;18.70;99.90
22813;DHT22;11573;51.334;3.244;2022-09-09T13:31:52;18.40;99.90
22813;DHT22;11573;51.334;3.244;2022-09-09T13:34:27;18.00;99.90
22813;DHT22;11573;51.334;3.244;2022-09-09T13:37:17;17.70;99.90
22813;DHT22;11573;51.334;3.244;2022-09-09T13:39:51;17.40;99.90
22813;DHT22;11573;51.334;3.244;2022-09-09T13:42:31;17.50;99.90
22813;DHT22;11573;51.334;3.244;2022-09-09T13:44:59;17.90;99.90
22813;DHT22;11573;51.334;3.244;2022-09-09T13:47:35;18.50;99.90
22813;DHT22;11573;51.334;3.244;2022-09-09T13:50:38;18.60;99.90
22813;DHT22;11573;51.334;3.244;2022-09-09T13:53:07;18.70;99.90
22813;DHT22;11573;51.334;3.244;2022-09-09T13:55:36;18.70;99.90
22813;DHT22;11573;51.334;3.244;2022-09-09T13:58:04;18.80;99.90
22813;DHT22;11573;51.334;3.244;2022-09-09T14:00:34;18.90;99.90
22813;DHT22;11573;51.334;3.244;2022-09-09T14:03:01;18.90;99.90
22813;DHT22;11573;51.334;3.244;2022-09-09T14:05:31;18.70;99.90
22813;DHT22;11573;51.334;3.244;2022-09-09T14:07:59;18.20;99.90
22813;DHT22;11573;51.334;3.244;2022-09-09T14:10:29;17.90;99.90
22813;DHT22;11573;51.334;3.244;2022-09-09T14:12:56;17.70;99.90
22813;DHT22;11573;51.334;3.244;2022-09-09T14:15:23;17.90;99.90
22813;DHT22;11573;51.334;3.244;2022-09-09T14:18:00;18.20;99.90
22813;DHT22;11573;51.334;3.244;2022-09-09T14:20:27;18.50;99.90
22813;DHT22;11573;51.334;3.244;2022-09-09T14:22:54;18.40;99.90
22813;DHT22;11573;51.334;3.244;2022-09-09T14:25:21;18.40;99.90
22813;DHT22;11573;51.334;3.244;2022-09-09T14:27:48;18.40;99.90
22813;DHT22;11573;51.334;3.244;2022-09-09T14:30:15;18.40;99.90
22813;DHT22;11573;51.334;3.244;2022-09-09T14:32:41;18.20;99.90
22813;DHT22;11573;51.334;3.244;2022-09-09T14:35:08;18.00;99.90
22813;DHT22;11573;51.334;3.244;2022-09-09T14:37:35;18.00;99.90
22813;DHT22;11573;51.334;3.244;2022-09-09T14:40:02;17.80;99.90
22813;DHT22;11573;51.334;3.244;2022-09-09T14:42:30;17.70;99.90
22813;DHT22;11573;51.334;3.244;2022-09-09T14:44:56;17.40;99.90
22813;DHT22;11573;51.334;3.244;2022-09-09T14:47:23;17.50;99.90
22813;DHT22;11573;51.334;3.244;2022-09-09T14:49:50;17.40;99.90
22813;DHT22;11573;51.334;3.244;2022-09-09T14:52:17;17.30;99.90
22813;DHT22;11573;51.334;3.244;2022-09-09T14:54:44;17.50;99.90
22813;DHT22;11573;51.334;3.244;2022-09-09T14:57:11;17.50;99.90
22813;DHT22;11573;51.334;3.244;2022-09-09T14:59:38;17.40;99.90
22813;DHT22;11573;51.334;3.244;2022-09-09T15:02:05;17.40;99.90
22813;DHT22;11573;51.334;3.244;2022-09-09T15:04:32;17.50;99.90
22813;DHT22;11573;51.334;3.244;2022-09-09T15:06:59;17.40;99.90
22813;DHT22;11573;51.334;3.244;2022-09-09T15:09:26;17.50;99.90
22813;DHT22;11573;51.334;3.244;2022-09-09T15:11:53;17.30;99.90
22813;DHT22;11573;51.334;3.244;2022-09-09T15:14:20;17.30;99.90
22813;DHT22;11573;51.334;3.244;2022-09-09T15:16:55;17.10;99.90
22813;DHT22;11573;51.334;3.244;2022-09-09T15:19:22;17.00;99.90
22813;DHT22;11573;51.334;3.244;2022-09-09T15:21:49;16.90;99.90
22813;DHT22;11573;51.334;3.244;2022-09-09T15:24:16;16.90;99.90
22813;DHT22;11573;51.334;3.244;2022-09-09T15:26:43;16.90;99.90
22813;DHT22;11573;51.334;3.244;2022-09-09T15:29:10;17.00;99.90
22813;DHT22;11573;51.334;3.244;2022-09-09T15:31:37;17.10;99.90
22813;DHT22;11573;51.334;3.244;2022-09-09T15:34:06;17.20;99.90
22813;DHT22;11573;51.334;3.244;2022-09-09T15:36:38;17.20;99.90
22813;DHT22;11573;51.334;3.244;2022-09-09T15:39:08;17.30;99.90
22813;DHT22;11573;51.334;3.244;2022-09-09T15:41:39;17.30;99.90
22813;DHT22;11573;51.334;3.244;2022-09-09T15:44:06;17.40;99.90
22813;DHT22;11573;51.334;3.244;2022-09-09T15:46:38;17.40;99.90
22813;DHT22;11573;51.334;3.244;2022-09-09T15:51:39;17.60;99.90
22813;DHT22;11573;51.334;3.244;2022-09-09T15:54:12;17.60;99.90
22813;DHT22;11573;51.334;3.244;2022-09-09T15:56:40;17.70;99.90
22813;DHT22;11573;51.334;3.244;2022-09-09T15:59:07;17.70;99.90
22813;DHT22;11573;51.334;3.244;2022-09-09T16:01:35;17.70;99.90
22813;DHT22;11573;51.334;3.244;2022-09-09T16:04:02;17.70;99.90
22813;DHT22;11573;51.334;3.244;2022-09-09T16:06:30;17.70;99.90
22813;DHT22;11573;51.334;3.244;2022-09-09T16:08:58;17.70;99.90
22813;DHT22;11573;51.334;3.244;2022-09-09T16:11:30;17.70;99.90
22813;DHT22;11573;51.334;3.244;2022-09-09T16:13:59;17.60;99.90
22813;DHT22;11573;51.334;3.244;2022-09-09T16:16:28;17.60;99.90
22813;DHT22;11573;51.334;3.244;2022-09-09T16:18:58;17.60;99.90
22813;DHT22;11573;51.334;3.244;2022-09-09T16:21:28;17.60;99.90
22813;DHT22;11573;51.334;3.244;2022-09-09T16:24:00;17.60;99.90
22813;DHT22;11573;51.334;3.244;2022-09-09T16:26:29;17.50;99.90
22813;DHT22;11573;51.334;3.244;2022-09-09T16:28:57;17.40;99.90
22813;DHT22;11573;51.334;3.244;2022-09-09T16:31:29;17.40;99.90
22813;DHT22;11573;51.334;3.244;2022-09-09T16:33:56;17.40;99.90
22813;DHT22;11573;51.334;3.244;2022-09-09T16:36:26;17.30;99.90
22813;DHT22;11573;51.334;3.244;2022-09-09T16:38:55;17.30;99.90
22813;DHT22;11573;51.334;3.244;2022-09-09T16:41:28;17.20;99.90
22813;DHT22;11573;51.334;3.244;2022-09-09T16:44:06;17.30;99.90
22813;DHT22;11573;51.334;3.244;2022-09-09T16:46:35;17.30;99.90
22813;DHT22;11573;51.334;3.244;2022-09-09T16:49:04;17.20;99.90
22813;DHT22;11573;51.334;3.244;2022-09-09T16:51:40;17.20;99.90
22813;DHT22;11573;51.334;3.244;2022-09-09T16:56:59;17.20;99.90
22813;DHT22;11573;51.334;3.244;2022-09-09T16:59:26;17.20;99.90
22813;DHT22;11573;51.334;3.244;2022-09-09T17:01:53;17.20;99.90
22813;DHT22;11573;51.334;3.244;2022-09-09T17:04:22;17.20;99.90
22813;DHT22;11573;51.334;3.244;2022-09-09T17:06:53;17.10;99.90
22813;DHT22;11573;51.334;3.244;2022-09-09T17:09:22;17.10;99.90
22813;DHT22;11573;51.334;3.244;2022-09-09T17:11:50;17.20;99.90
22813;DHT22;11573;51.334;3.244;2022-09-09T17:14:20;17.30;99.90
22813;DHT22;11573;51.334;3.244;2022-09-09T17:16:48;17.30;99.90
22813;DHT22;11573;51.334;3.244;2022-09-09T17:19:15;17.20;99.90
22813;DHT22;11573;51.334;3.244;2022-09-09T17:21:42;17.30;99.90
22813;DHT22;11573;51.334;3.244;2022-09-09T17:24:29;17.30;99.90
22813;DHT22;11573;51.334;3.244;2022-09-09T17:26:56;17.30;99.90
22813;DHT22;11573;51.334;3.244;2022-09-09T17:29:24;17.30;99.90
22813;DHT22;11573;51.334;3.244;2022-09-09T17:31:52;17.20;99.90
22813;DHT22;11573;51.334;3.244;2022-09-09T17:34:19;17.30;99.90
22813;DHT22;11573;51.334;3.244;2022-09-09T17:36:45;17.20;99.90
22813;DHT22;11573;51.334;3.244;2022-09-09T17:39:12;17.20;99.90
22813;DHT22;11573;51.334;3.244;2022-09-09T17:41:40;17.20;99.90
22813;DHT22;11573;51.334;3.244;2022-09-09T17:44:07;17.10;99.90
22813;DHT22;11573;51.334;3.244;2022-09-09T17:46:40;17.10;99.90
22813;DHT22;11573;51.334;3.244;2022-09-09T17:49:17;17.10;99.90
22813;DHT22;11573;51.334;3.244;2022-09-09T17:51:45;17.10;99.90
22813;DHT22;11573;51.334;3.244;2022-09-09T17:54:20;17.00;99.90
22813;DHT22;11573;51.334;3.244;2022-09-09T17:56:48;17.00;99.90
22813;DHT22;11573;51.334;3.244;2022-09-09T17:59:16;17.00;99.90
22813;DHT22;11573;51.334;3.244;2022-09-09T18:01:46;17.00;99.90
22813;DHT22;11573;51.334;3.244;2022-09-09T18:04:14;17.00;99.90
22813;DHT22;11573;51.334;3.244;2022-09-09T18:06:45;17.10;99.90
22813;DHT22;11573;51.334;3.244;2022-09-09T18:09:18;17.10;99.90
22813;DHT22;11573;51.334;3.244;2022-09-09T18:11:48;17.20;99.90
22813;DHT22;11573;51.334;3.244;2022-09-09T18:14:21;17.10;99.90
22813;DHT22;11573;51.334;3.244;2022-09-09T18:16:49;17.10;99.90
22813;DHT22;11573;51.334;3.244;2022-09-09T18:19:19;17.20;99.90
22813;DHT22;11573;51.334;3.244;2022-09-09T18:21:47;17.10;99.90
22813;DHT22;11573;51.334;3.244;2022-09-09T18:24:16;17.00;99.90